Terminal Aerodrome Forecast
Issued by NWS

Home | Current Version | Previous Version | Text Only | Print | Product List | Glossary On
Versions: 1 2 3 4 5 6 7 8 9 10 11 12 13
000
FTUS41 KRNK 241730
TAFBCB
TAF
KBCB 241730Z 2418/2518 15005KT P6SM SCT250
     FM250100 00000KT P6SM SCT100 BKN250
     FM251000 15003KT P6SM OVC020
     FM251200 15007KT P6SM -SHRA OVC020=

USA.gov is the U.S. government's official web portal to all federal, state and local government web resources and services.